Time;durP1;ratioP1;P1;durP2;ratioP2;P2;SDS_P1;SDS_P2;PMS_P1;PMS_P2;Temp;Humidity;BMP_temperature;BMP_pressure;BME280_temperature;BME280_humidity;BME280_pressure;Samples;Min_cycle;Max_cycle;Signal;HPM_P1;HPM_P2
2022/05/05 02:57:39;;;;;;;;;;;;;;;;;;336615;29;1808;-80
2022/05/05 02:57:49;;;;;;;;;;;;;;;;;;337617;29;1017;-79
2022/05/05 02:58:03;;;;;;;;;;;;;;;;;;338252;29;1312;-80
2022/05/05 02:58:13;;;;;;;;;;;;;;;;;;335903;29;1854;-80
2022/05/05 02:58:23;;;;;;;;;;;;;;;;;;337742;29;1034;-80
2022/05/05 02:58:34;;;;;;;;;;;;;;;;;;337754;29;882;-80
2022/05/05 02:58:44;;;;;;;;;;;;;;;;;;337720;29;910;-80
2022/05/05 02:58:54;;;;;;;;;;;;;;;;;;337513;29;1196;-80
2022/05/05 02:59:04;;;;;;;;;;;;;;;;;;337753;29;950;-79
2022/05/05 02:59:14;;;;;;;;;;;;;;;;;;337755;29;946;-80
2022/05/05 02:59:25;;;;;;;;;;;;;;;;;;337744;29;857;-80
2022/05/05 02:59:35;;;;;;;;;;;;;;;;;;337649;29;929;-80
2022/05/05 02:59:45;;;;;;;;;;;;;;;;;;338808;29;1394;-80
2022/05/05 02:59:55;;;;;;;;;;;;;;;;;;339166;29;819;-80
2022/05/05 03:00:07;;;;;;;;;;;;;;;;;;338980;29;1122;-80
2022/05/05 03:00:17;;;;;;;;;;;;;;;;;;339012;29;1222;-80
2022/05/05 03:00:28;;;;;;;;;;;;;;;;;;339139;29;981;-80
2022/05/05 03:00:38;;;;;;;;;;;;;;;;;;339046;29;938;-80
2022/05/05 03:00:48;;;;;;;;;;;;;;;;;;339141;29;941;-80
2022/05/05 03:00:58;;;;;;;;;;;;;;;;;;339144;29;1008;-80
2022/05/05 03:01:08;;;;;;;;;;;;;;;;;;339128;29;864;-80
2022/05/05 03:01:19;;;;;;;;;;;;;;;;;;339117;29;941;-80
2022/05/05 03:01:29;;;;;;;;;;;;;;;;;;339100;29;796;-79
2022/05/05 03:01:39;;;;;;;;;;;;;;;;;;339088;29;921;-79
2022/05/05 03:01:49;;;;;;;;;;;;;;;;;;339134;29;977;-80
2022/05/05 03:01:59;;;;;;;;;;;;;;;;;;339200;29;786;-80
2022/05/05 03:02:10;;;;;;;;;;;;;;;;;;339079;29;1911;-80
2022/05/05 03:02:20;;;;;;;;;;;;;;;;;;338727;29;1082;-79
2022/05/05 03:02:31;;;;;;;;;;;;;;;;;;337846;29;966;-80
2022/05/05 03:02:43;;;;;;;;;;;;;;;;;;337869;29;945;-80
2022/05/05 03:02:53;;;;;;;;;;;;;;;;;;337814;29;1036;-80
2022/05/05 03:03:04;;;;;;;;;;;;;;;;;;337731;29;978;-80
2022/05/05 03:03:14;;;;;;;;;;;;;;;;;;337857;29;874;-80
2022/05/05 03:03:24;;;;;;;;;;;;;;;;;;337608;29;1557;-80
2022/05/05 03:03:35;;;;;;;;;;;;;;;;;;336946;29;1700;-79
2022/05/05 03:03:45;;;;;;;;;;;;;;;;;;337507;29;1880;-79
2022/05/05 03:03:55;;;;;;;;;;;;;;;;;;338207;29;1285;-79
2022/05/05 03:04:05;;;;;;;;;;;;;;;;;;339317;29;886;-80
2022/05/05 03:04:16;;;;;;;;;;;;;;;;;;338717;29;1985;-80
2022/05/05 03:04:26;;;;;;;;;;;;;;;;;;338056;29;997;-80
2022/05/05 03:04:36;;;;;;;;;;;;;;;;;;338054;29;962;-80
2022/05/05 03:04:47;;;;;;;;;;;;;;;;;;338012;29;838;-80
2022/05/05 03:04:57;;;;;;;;;;;;;;;;;;337653;29;1616;-80
2022/05/05 03:05:11;;;;;;;;;;;;;;;;;;337841;29;1504;-79
2022/05/05 03:05:21;;;;;;;;;;;;;;;;;;338037;29;950;-79
2022/05/05 03:05:32;;;;;;;;;;;;;;;;;;337918;29;1236;-80
2022/05/05 03:05:42;;;;;;;;;;;;;;;;;;337580;29;1628;-79
2022/05/05 03:05:52;;;;;;;;;;;;;;;;;;337995;29;1770;-79
2022/05/05 03:06:02;;;;;;;;;;;;;;;;;;338090;29;918;-80
2022/05/05 03:06:12;;;;;;;;;;;;;;;;;;338055;29;1012;-80
2022/05/05 03:06:23;;;;;;;;;;;;;;;;;;337960;29;1608;-80
2022/05/05 03:06:33;;;;;;;;;;;;;;;;;;337984;29;934;-80
2022/05/05 03:06:43;;;;;;;;;;;;;;;;;;338062;29;945;-80
2022/05/05 03:06:53;;;;;;;;;;;;;;;;;;338079;29;997;-80
2022/05/05 03:07:04;;;;;;;;;;;;;;;;;;338082;29;863;-80
2022/05/05 03:07:15;;;;;;;;;;;;;;;;;;337998;29;918;-80
2022/05/05 03:07:25;;;;;;;;;;;;;;;;;;337916;29;919;-80
2022/05/05 03:07:36;;;;;;;;;;;;;;;;;;338053;29;1029;-79
2022/05/05 03:07:48;;;;;;;;;;;;;;;;;;339025;29;1415;-79
2022/05/05 03:07:58;;;;;;;;;;;;;;;;;;339343;29;949;-79
2022/05/05 03:08:08;;;;;;;;;;;;;;;;;;339325;29;997;-80
2022/05/05 03:08:19;;;;;;;;;;;;;;;;;;339306;29;941;-79
2022/05/05 03:08:29;;;;;;;;;;;;;;;;;;339389;29;933;-79
2022/05/05 03:08:39;;;;;;;;;;;;;;;;;;339213;29;1540;-79
2022/05/05 03:08:50;;;;;;;;;;;;;;;;;;337920;29;1517;-79
2022/05/05 03:09:00;;;;;;;;;;;;;;;;;;338076;29;973;-80
2022/05/05 03:09:10;;;;;;;;;;;;;;;;;;337985;29;977;-80
2022/05/05 03:09:20;;;;;;;;;;;;;;;;;;338050;29;934;-80
2022/05/05 03:09:31;;;;;;;;;;;;;;;;;;338114;29;985;-80
2022/05/05 03:09:41;;;;;;;;;;;;;;;;;;337726;29;1689;-80
2022/05/05 03:09:51;;;;;;;;;;;;;;;;;;337833;29;1624;-79
2022/05/05 03:10:02;;;;;;;;;;;;;;;;;;337995;29;926;-80
2022/05/05 03:10:13;;;;;;;;;;;;;;;;;;338009;29;946;-80
2022/05/05 03:10:23;;;;;;;;;;;;;;;;;;337574;29;1149;-80
2022/05/05 03:10:33;;;;;;;;;;;;;;;;;;336772;29;942;-80
2022/05/05 03:10:44;;;;;;;;;;;;;;;;;;336788;29;927;-80
2022/05/05 03:10:54;;;;;;;;;;;;;;;;;;336625;29;1057;-80
2022/05/05 03:11:04;;;;;;;;;;;;;;;;;;336733;29;867;-80
2022/05/05 03:11:14;;;;;;;;;;;;;;;;;;336815;29;875;-80
2022/05/05 03:11:24;;;;;;;;;;;;;;;;;;336780;29;847;-80
2022/05/05 03:11:35;;;;;;;;;;;;;;;;;;336823;29;875;-80
2022/05/05 03:11:45;;;;;;;;;;;;;;;;;;336698;29;1026;-80
2022/05/05 03:11:55;;;;;;;;;;;;;;;;;;336717;29;1001;-80
2022/05/05 03:12:06;;;;;;;;;;;;;;;;;;336748;29;847;-80
2022/05/05 03:12:16;;;;;;;;;;;;;;;;;;336795;29;872;-79
2022/05/05 03:12:26;;;;;;;;;;;;;;;;;;336993;29;1277;-79
2022/05/05 03:12:37;;;;;;;;;;;;;;;;;;337996;29;942;-80
2022/05/05 03:12:47;;;;;;;;;;;;;;;;;;338052;29;926;-80
2022/05/05 03:12:57;;;;;;;;;;;;;;;;;;338057;29;791;-80
2022/05/05 03:13:07;;;;;;;;;;;;;;;;;;338078;29;954;-80
2022/05/05 03:13:17;;;;;;;;;;;;;;;;;;338052;29;1013;-80
2022/05/05 03:13:27;;;;;;;;;;;;;;;;;;338047;29;863;-80
2022/05/05 03:13:38;;;;;;;;;;;;;;;;;;338020;29;1040;-80
2022/05/05 03:13:48;;;;;;;;;;;;;;;;;;337894;29;1004;-80
2022/05/05 03:13:58;;;;;;;;;;;;;;;;;;337985;29;1000;-80
2022/05/05 03:14:08;;;;;;;;;;;;;;;;;;338006;29;855;-79
2022/05/05 03:14:19;;;;;;;;;;;;;;;;;;338034;29;954;-79
2022/05/05 03:14:29;;;;;;;;;;;;;;;;;;338048;29;858;-80
2022/05/05 03:14:39;;;;;;;;;;;;;;;;;;338080;29;1092;-80
2022/05/05 03:14:49;;;;;;;;;;;;;;;;;;338086;29;831;-80
2022/05/05 03:15:00;;;;;;;;;;;;;;;;;;338014;29;1012;-80
2022/05/05 03:15:10;;;;;;;;;;;;;;;;;;338028;29;935;-80
2022/05/05 03:15:20;;;;;;;;;;;;;;;;;;338055;29;973;-80
2022/05/05 03:15:31;;;;;;;;;;;;;;;;;;338099;29;780;-80
2022/05/05 03:15:41;;;;;;;;;;;;;;;;;;338048;29;1016;-80
2022/05/05 03:15:51;;;;;;;;;;;;;;;;;;338044;29;938;-80
2022/05/05 03:16:02;;;;;;;;;;;;;;;;;;338003;29;1037;-80
2022/05/05 03:16:12;;;;;;;;;;;;;;;;;;337977;29;989;-79
2022/05/05 03:16:23;;;;;;;;;;;;;;;;;;337981;29;1030;-80
2022/05/05 03:16:33;;;;;;;;;;;;;;;;;;338078;29;906;-80
2022/05/05 03:16:43;;;;;;;;;;;;;;;;;;338044;29;897;-80
2022/05/05 03:16:53;;;;;;;;;;;;;;;;;;338022;29;1044;-80
2022/05/05 03:17:04;;;;;;;;;;;;;;;;;;337921;29;1016;-80
2022/05/05 03:17:14;;;;;;;;;;;;;;;;;;338112;29;894;-80
2022/05/05 03:17:25;;;;;;;;;;;;;;;;;;338005;29;910;-79
2022/05/05 03:17:35;;;;;;;;;;;;;;;;;;338060;29;1018;-80
2022/05/05 03:17:46;;;;;;;;;;;;;;;;;;338056;29;842;-80
2022/05/05 03:17:56;;;;;;;;;;;;;;;;;;337959;29;990;-80
2022/05/05 03:18:06;;;;;;;;;;;;;;;;;;338068;29;838;-80
2022/05/05 03:18:16;;;;;;;;;;;;;;;;;;337981;29;977;-80
2022/05/05 03:18:27;;;;;;;;;;;;;;;;;;337534;29;1924;-79
2022/05/05 03:18:40;;;;;;;;;;;;;;;;;;337783;29;1876;-80
2022/05/05 03:18:50;;;;;;;;;;;;;;;;;;336663;29;930;-80
2022/05/05 03:19:00;;;;;;;;;;;;;;;;;;336674;29;1619;-80
2022/05/05 03:19:11;;;;;;;;;;;;;;;;;;337789;29;1967;-80
2022/05/05 03:19:21;;;;;;;;;;;;;;;;;;337947;29;890;-80
2022/05/05 03:19:31;;;;;;;;;;;;;;;;;;337740;29;1616;-79
2022/05/05 03:19:42;;;;;;;;;;;;;;;;;;338083;29;862;-80
2022/05/05 03:19:52;;;;;;;;;;;;;;;;;;338028;29;961;-80
2022/05/05 03:20:03;;;;;;;;;;;;;;;;;;337847;29;1658;-79
2022/05/05 03:20:13;;;;;;;;;;;;;;;;;;337989;29;946;-79
2022/05/05 03:20:23;;;;;;;;;;;;;;;;;;338003;29;981;-80
2022/05/05 03:20:33;;;;;;;;;;;;;;;;;;338045;29;946;-80
2022/05/05 03:20:44;;;;;;;;;;;;;;;;;;338064;29;961;-80
2022/05/05 03:20:54;;;;;;;;;;;;;;;;;;338022;29;934;-80
2022/05/05 03:21:04;;;;;;;;;;;;;;;;;;338018;29;977;-80
2022/05/05 03:21:14;;;;;;;;;;;;;;;;;;338085;29;914;-80
2022/05/05 03:21:24;;;;;;;;;;;;;;;;;;338059;29;918;-80
2022/05/05 03:21:34;;;;;;;;;;;;;;;;;;338044;29;922;-80
2022/05/05 03:21:45;;;;;;;;;;;;;;;;;;337847;29;1182;-80
2022/05/05 03:21:55;;;;;;;;;;;;;;;;;;337950;29;922;-80
2022/05/05 03:22:05;;;;;;;;;;;;;;;;;;337932;29;1906;-80
2022/05/05 03:22:16;;;;;;;;;;;;;;;;;;337830;29;1007;-80
2022/05/05 03:22:26;;;;;;;;;;;;;;;;;;337986;29;898;-80
2022/05/05 03:22:36;;;;;;;;;;;;;;;;;;338066;29;926;-80
2022/05/05 03:22:46;;;;;;;;;;;;;;;;;;338080;29;875;-80
2022/05/05 03:22:56;;;;;;;;;;;;;;;;;;337996;29;922;-80
2022/05/05 03:23:07;;;;;;;;;;;;;;;;;;338020;29;930;-80
2022/05/05 03:23:17;;;;;;;;;;;;;;;;;;337843;29;1128;-80
2022/05/05 03:23:27;;;;;;;;;;;;;;;;;;338035;29;1060;-80
2022/05/05 03:23:37;;;;;;;;;;;;;;;;;;337996;29;981;-79
2022/05/05 03:23:47;;;;;;;;;;;;;;;;;;338051;29;930;-79
2022/05/05 03:23:58;;;;;;;;;;;;;;;;;;336942;29;1733;-79
2022/05/05 03:24:08;;;;;;;;;;;;;;;;;;337985;29;989;-80
2022/05/05 03:24:19;;;;;;;;;;;;;;;;;;337979;29;1037;-80
2022/05/05 03:24:29;;;;;;;;;;;;;;;;;;337991;29;942;-80
2022/05/05 03:24:39;;;;;;;;;;;;;;;;;;338060;29;866;-80
2022/05/05 03:24:50;;;;;;;;;;;;;;;;;;338075;29;938;-80
2022/05/05 03:25:00;;;;;;;;;;;;;;;;;;337998;29;932;-80
2022/05/05 03:25:10;;;;;;;;;;;;;;;;;;338009;29;989;-80
2022/05/05 03:25:21;;;;;;;;;;;;;;;;;;338063;29;807;-80
2022/05/05 03:25:31;;;;;;;;;;;;;;;;;;338010;29;1184;-80
2022/05/05 03:25:41;;;;;;;;;;;;;;;;;;338014;29;922;-80
2022/05/05 03:25:51;;;;;;;;;;;;;;;;;;338046;29;974;-80
2022/05/05 03:26:01;;;;;;;;;;;;;;;;;;337985;29;992;-80
2022/05/05 03:26:13;;;;;;;;;;;;;;;;;;337911;29;926;-80
2022/05/05 03:26:23;;;;;;;;;;;;;;;;;;338010;29;946;-80
2022/05/05 03:26:33;;;;;;;;;;;;;;;;;;338055;29;838;-80
2022/05/05 03:26:43;;;;;;;;;;;;;;;;;;338031;29;1064;-80
2022/05/05 03:26:54;;;;;;;;;;;;;;;;;;338056;29;900;-80
2022/05/05 03:27:04;;;;;;;;;;;;;;;;;;337888;29;1013;-80
2022/05/05 03:27:15;;;;;;;;;;;;;;;;;;338011;29;997;-80
2022/05/05 03:27:25;;;;;;;;;;;;;;;;;;337881;29;1021;-80
2022/05/05 03:27:36;;;;;;;;;;;;;;;;;;337986;29;886;-80
2022/05/05 03:27:46;;;;;;;;;;;;;;;;;;337956;29;934;-80
2022/05/05 03:27:56;;;;;;;;;;;;;;;;;;337992;29;893;-80
2022/05/05 03:28:06;;;;;;;;;;;;;;;;;;337902;29;969;-80
2022/05/05 03:28:17;;;;;;;;;;;;;;;;;;338029;29;866;-80
2022/05/05 03:28:27;;;;;;;;;;;;;;;;;;337851;29;1096;-80
2022/05/05 03:28:37;;;;;;;;;;;;;;;;;;337966;29;989;-80
2022/05/05 03:28:47;;;;;;;;;;;;;;;;;;337913;29;938;-80
2022/05/05 03:28:58;;;;;;;;;;;;;;;;;;338012;29;859;-80
2022/05/05 03:29:08;;;;;;;;;;;;;;;;;;337883;29;973;-80
2022/05/05 03:29:18;;;;;;;;;;;;;;;;;;337970;29;970;-80
2022/05/05 03:29:28;;;;;;;;;;;;;;;;;;338071;29;1265;-80
2022/05/05 03:29:39;;;;;;;;;;;;;;;;;;339378;29;961;-80
2022/05/05 03:29:49;;;;;;;;;;;;;;;;;;339314;29;862;-79
2022/05/05 03:29:59;;;;;;;;;;;;;;;;;;339378;29;933;-80
2022/05/05 03:30:10;;;;;;;;;;;;;;;;;;337212;29;1563;-79
2022/05/05 03:30:20;;;;;;;;;;;;;;;;;;337958;29;1934;-80
2022/05/05 03:30:30;;;;;;;;;;;;;;;;;;338044;29;937;-80
2022/05/05 03:30:41;;;;;;;;;;;;;;;;;;338012;29;835;-80
2022/05/05 03:30:51;;;;;;;;;;;;;;;;;;337880;29;1107;-80
2022/05/05 03:31:01;;;;;;;;;;;;;;;;;;337997;29;843;-80
2022/05/05 03:31:11;;;;;;;;;;;;;;;;;;338018;29;988;-80
2022/05/05 03:31:22;;;;;;;;;;;;;;;;;;337797;29;1139;-79
2022/05/05 03:31:32;;;;;;;;;;;;;;;;;;337995;29;997;-80
2022/05/05 03:31:43;;;;;;;;;;;;;;;;;;338003;29;1052;-80
2022/05/05 03:31:53;;;;;;;;;;;;;;;;;;338030;29;806;-79
2022/05/05 03:32:03;;;;;;;;;;;;;;;;;;338029;29;871;-80
2022/05/05 03:32:15;;;;;;;;;;;;;;;;;;338029;29;815;-80
2022/05/05 03:32:25;;;;;;;;;;;;;;;;;;338008;29;1018;-80
2022/05/05 03:32:35;;;;;;;;;;;;;;;;;;338042;29;919;-80
2022/05/05 03:32:46;;;;;;;;;;;;;;;;;;338010;29;970;-80
2022/05/05 03:32:56;;;;;;;;;;;;;;;;;;338064;29;871;-80
2022/05/05 03:33:06;;;;;;;;;;;;;;;;;;337989;29;819;-80
2022/05/05 03:33:17;;;;;;;;;;;;;;;;;;338028;29;893;-80
2022/05/05 03:33:27;;;;;;;;;;;;;;;;;;338059;29;855;-80
2022/05/05 03:33:37;;;;;;;;;;;;;;;;;;338002;29;944;-80
2022/05/05 03:33:48;;;;;;;;;;;;;;;;;;338031;29;871;-79
2022/05/05 03:33:58;;;;;;;;;;;;;;;;;;338017;29;937;-80
2022/05/05 03:34:09;;;;;;;;;;;;;;;;;;337939;29;1445;-80
2022/05/05 03:34:20;;;;;;;;;;;;;;;;;;337381;29;1509;-80
2022/05/05 03:34:30;;;;;;;;;;;;;;;;;;338077;29;922;-79
2022/05/05 03:34:40;;;;;;;;;;;;;;;;;;338010;29;846;-79
2022/05/05 03:34:50;;;;;;;;;;;;;;;;;;338028;29;800;-79
2022/05/05 03:35:01;;;;;;;;;;;;;;;;;;338002;29;906;-80
2022/05/05 03:35:11;;;;;;;;;;;;;;;;;;338048;29;909;-80
2022/05/05 03:35:21;;;;;;;;;;;;;;;;;;338025;29;982;-80
2022/05/05 03:35:31;;;;;;;;;;;;;;;;;;338063;29;926;-80
2022/05/05 03:35:42;;;;;;;;;;;;;;;;;;338081;29;832;-80
2022/05/05 03:35:52;;;;;;;;;;;;;;;;;;338003;29;1041;-80
2022/05/05 03:36:03;;;;;;;;;;;;;;;;;;338044;29;847;-80
2022/05/05 03:36:13;;;;;;;;;;;;;;;;;;337850;29;1429;-79
2022/05/05 03:36:23;;;;;;;;;;;;;;;;;;338017;29;978;-80
2022/05/05 03:36:34;;;;;;;;;;;;;;;;;;338058;29;937;-80
2022/05/05 03:36:44;;;;;;;;;;;;;;;;;;338041;29;930;-80
2022/05/05 03:36:54;;;;;;;;;;;;;;;;;;337951;29;922;-80
2022/05/05 03:37:04;;;;;;;;;;;;;;;;;;338021;29;839;-80
2022/05/05 03:37:15;;;;;;;;;;;;;;;;;;337986;29;898;-80
2022/05/05 03:37:28;;;;;;;;;;;;;;;;;;338075;29;969;-80
2022/05/05 03:37:39;;;;;;;;;;;;;;;;;;338077;29;839;-80
2022/05/05 03:37:49;;;;;;;;;;;;;;;;;;338036;29;915;-80
2022/05/05 03:37:59;;;;;;;;;;;;;;;;;;337921;29;1008;-80
2022/05/05 03:38:10;;;;;;;;;;;;;;;;;;338015;29;934;-80
2022/05/05 03:38:20;;;;;;;;;;;;;;;;;;338016;29;1001;-80
2022/05/05 03:38:30;;;;;;;;;;;;;;;;;;338003;29;1068;-80
2022/05/05 03:38:40;;;;;;;;;;;;;;;;;;338002;29;926;-80
2022/05/05 03:38:51;;;;;;;;;;;;;;;;;;338052;29;840;-80
2022/05/05 03:39:01;;;;;;;;;;;;;;;;;;338041;29;807;-80
2022/05/05 03:39:11;;;;;;;;;;;;;;;;;;337960;29;1037;-80
2022/05/05 03:39:21;;;;;;;;;;;;;;;;;;338056;29;985;-80
2022/05/05 03:39:32;;;;;;;;;;;;;;;;;;337865;29;1116;-80
2022/05/05 03:39:42;;;;;;;;;;;;;;;;;;338052;29;1014;-80
2022/05/05 03:39:52;;;;;;;;;;;;;;;;;;338065;29;894;-80
2022/05/05 03:40:03;;;;;;;;;;;;;;;;;;337928;29;1018;-80
2022/05/05 03:40:13;;;;;;;;;;;;;;;;;;337974;29;922;-80
2022/05/05 03:40:23;;;;;;;;;;;;;;;;;;337936;29;1100;-80
2022/05/05 03:40:33;;;;;;;;;;;;;;;;;;338067;29;1002;-80
2022/05/05 03:40:45;;;;;;;;;;;;;;;;;;338068;29;874;-80
2022/05/05 03:40:55;;;;;;;;;;;;;;;;;;338024;29;977;-80
2022/05/05 03:41:05;;;;;;;;;;;;;;;;;;338011;29;870;-80
2022/05/05 03:41:15;;;;;;;;;;;;;;;;;;338007;29;820;-80
2022/05/05 03:41:26;;;;;;;;;;;;;;;;;;337997;29;1057;-80
2022/05/05 03:41:36;;;;;;;;;;;;;;;;;;338093;29;792;-80
2022/05/05 03:41:47;;;;;;;;;;;;;;;;;;338113;29;865;-80
2022/05/05 03:41:57;;;;;;;;;;;;;;;;;;338056;29;962;-80
2022/05/05 03:42:07;;;;;;;;;;;;;;;;;;337922;29;1977;-80
2022/05/05 03:42:17;;;;;;;;;;;;;;;;;;338043;29;897;-80
2022/05/05 03:42:28;;;;;;;;;;;;;;;;;;338041;29;965;-80
2022/05/05 03:42:38;;;;;;;;;;;;;;;;;;338027;29;970;-80
2022/05/05 03:42:48;;;;;;;;;;;;;;;;;;338008;29;962;-80
2022/05/05 03:42:59;;;;;;;;;;;;;;;;;;338038;29;926;-80
2022/05/05 03:43:09;;;;;;;;;;;;;;;;;;338035;29;784;-80
2022/05/05 03:43:19;;;;;;;;;;;;;;;;;;338005;29;914;-80
2022/05/05 03:43:29;;;;;;;;;;;;;;;;;;338009;29;938;-80
2022/05/05 03:43:40;;;;;;;;;;;;;;;;;;338056;29;926;-80
2022/05/05 03:43:52;;;;;;;;;;;;;;;;;;338082;29;843;-80
2022/05/05 03:44:03;;;;;;;;;;;;;;;;;;338028;29;930;-80
2022/05/05 03:44:14;;;;;;;;;;;;;;;;;;338024;29;1009;-80
2022/05/05 03:44:24;;;;;;;;;;;;;;;;;;337996;29;802;-80
2022/05/05 03:44:34;;;;;;;;;;;;;;;;;;338018;29;965;-80
2022/05/05 03:44:44;;;;;;;;;;;;;;;;;;337987;29;981;-80
2022/05/05 03:44:54;;;;;;;;;;;;;;;;;;338050;29;1029;-80
2022/05/05 03:45:05;;;;;;;;;;;;;;;;;;338001;29;1010;-80
2022/05/05 03:45:15;;;;;;;;;;;;;;;;;;337848;29;1544;-80
2022/05/05 03:45:25;;;;;;;;;;;;;;;;;;337362;29;1601;-80
2022/05/05 03:45:36;;;;;;;;;;;;;;;;;;337919;29;1978;-80
2022/05/05 03:45:46;;;;;;;;;;;;;;;;;;337878;29;1154;-80
2022/05/05 03:45:56;;;;;;;;;;;;;;;;;;338011;29;823;-80
2022/05/05 03:46:06;;;;;;;;;;;;;;;;;;337981;29;891;-80
2022/05/05 03:46:17;;;;;;;;;;;;;;;;;;338023;29;945;-80
2022/05/05 03:46:27;;;;;;;;;;;;;;;;;;337987;29;954;-80
2022/05/05 03:46:37;;;;;;;;;;;;;;;;;;337933;29;981;-80
2022/05/05 03:46:47;;;;;;;;;;;;;;;;;;338015;29;808;-80
2022/05/05 03:46:58;;;;;;;;;;;;;;;;;;338048;29;973;-80
2022/05/05 03:47:08;;;;;;;;;;;;;;;;;;337960;29;1195;-80
2022/05/05 03:47:19;;;;;;;;;;;;;;;;;;338013;29;914;-80
2022/05/05 03:47:29;;;;;;;;;;;;;;;;;;338037;29;885;-80
2022/05/05 03:47:39;;;;;;;;;;;;;;;;;;337979;29;923;-80
2022/05/05 03:47:49;;;;;;;;;;;;;;;;;;338051;29;867;-80
2022/05/05 03:47:59;;;;;;;;;;;;;;;;;;338043;29;891;-80
2022/05/05 03:48:10;;;;;;;;;;;;;;;;;;337985;29;978;-80
2022/05/05 03:48:20;;;;;;;;;;;;;;;;;;338030;29;872;-80
2022/05/05 03:48:33;;;;;;;;;;;;;;;;;;338010;29;749;-80
2022/05/05 03:48:43;;;;;;;;;;;;;;;;;;337996;29;866;-80
2022/05/05 03:48:53;;;;;;;;;;;;;;;;;;338014;29;926;-80
2022/05/05 03:49:04;;;;;;;;;;;;;;;;;;337770;29;1518;-80
2022/05/05 03:49:14;;;;;;;;;;;;;;;;;;338002;29;993;-80
2022/05/05 03:49:24;;;;;;;;;;;;;;;;;;338043;29;973;-80
2022/05/05 03:49:34;;;;;;;;;;;;;;;;;;337957;29;978;-80
2022/05/05 03:49:45;;;;;;;;;;;;;;;;;;337960;29;914;-80
2022/05/05 03:49:55;;;;;;;;;;;;;;;;;;337913;29;1227;-80
2022/05/05 03:50:05;;;;;;;;;;;;;;;;;;338044;29;934;-80
2022/05/05 03:50:15;;;;;;;;;;;;;;;;;;337952;29;1022;-80
2022/05/05 03:50:26;;;;;;;;;;;;;;;;;;338004;29;901;-80
2022/05/05 03:50:36;;;;;;;;;;;;;;;;;;337998;29;957;-80
2022/05/05 03:50:46;;;;;;;;;;;;;;;;;;338040;29;950;-80
2022/05/05 03:50:56;;;;;;;;;;;;;;;;;;338019;29;993;-80
2022/05/05 03:51:07;;;;;;;;;;;;;;;;;;338027;29;795;-80
2022/05/05 03:51:17;;;;;;;;;;;;;;;;;;337989;29;957;-80
2022/05/05 03:51:27;;;;;;;;;;;;;;;;;;338027;29;946;-80
2022/05/05 03:51:37;;;;;;;;;;;;;;;;;;337934;29;918;-80
2022/05/05 03:51:47;;;;;;;;;;;;;;;;;;337950;29;1071;-80
2022/05/05 03:51:58;;;;;;;;;;;;;;;;;;337990;29;926;-80
2022/05/05 03:52:08;;;;;;;;;;;;;;;;;;337164;29;1801;-79
2022/05/05 03:52:18;;;;;;;;;;;;;;;;;;337955;29;962;-79
2022/05/05 03:52:28;;;;;;;;;;;;;;;;;;337999;29;982;-80
2022/05/05 03:52:38;;;;;;;;;;;;;;;;;;338008;29;812;-80
2022/05/05 03:52:49;;;;;;;;;;;;;;;;;;337949;29;1002;-79
2022/05/05 03:52:59;;;;;;;;;;;;;;;;;;338000;29;973;-80
2022/05/05 03:53:09;;;;;;;;;;;;;;;;;;338010;29;978;-80
2022/05/05 03:53:19;;;;;;;;;;;;;;;;;;337969;29;855;-80
2022/05/05 03:53:29;;;;;;;;;;;;;;;;;;337996;29;965;-80
2022/05/05 03:53:40;;;;;;;;;;;;;;;;;;337913;29;876;-80
2022/05/05 03:53:50;;;;;;;;;;;;;;;;;;337826;29;942;-80
2022/05/05 03:54:00;;;;;;;;;;;;;;;;;;338051;29;977;-80
2022/05/05 03:54:10;;;;;;;;;;;;;;;;;;337975;29;950;-80
2022/05/05 03:54:21;;;;;;;;;;;;;;;;;;337956;29;922;-79
2022/05/05 03:54:32;;;;;;;;;;;;;;;;;;337915;29;1079;-80
2022/05/05 03:54:42;;;;;;;;;;;;;;;;;;337965;29;1088;-80
2022/05/05 03:54:52;;;;;;;;;;;;;;;;;;337822;29;1118;-80
2022/05/05 03:55:02;;;;;;;;;;;;;;;;;;337946;29;1025;-80
2022/05/05 03:55:13;;;;;;;;;;;;;;;;;;337990;29;1025;-80
2022/05/05 03:55:23;;;;;;;;;;;;;;;;;;337970;29;806;-80
2022/05/05 03:55:33;;;;;;;;;;;;;;;;;;337792;29;1004;-80
2022/05/05 03:55:43;;;;;;;;;;;;;;;;;;337942;29;958;-80
2022/05/05 03:55:53;;;;;;;;;;;;;;;;;;337933;29;847;-80
2022/05/05 03:56:04;;;;;;;;;;;;;;;;;;337999;29;985;-80
2022/05/05 03:56:14;;;;;;;;;;;;;;;;;;338027;29;919;-80
2022/05/05 03:56:24;;;;;;;;;;;;;;;;;;337975;29;988;-80
2022/05/05 03:56:34;;;;;;;;;;;;;;;;;;337985;29;1044;-80
2022/05/05 03:56:45;;;;;;;;;;;;;;;;;;337780;29;1027;-80
2022/05/05 03:56:55;;;;;;;;;;;;;;;;;;337971;29;947;-80
2022/05/05 03:57:05;;;;;;;;;;;;;;;;;;338025;29;934;-80
2022/05/05 03:57:15;;;;;;;;;;;;;;;;;;338067;29;787;-80
2022/05/05 03:57:26;;;;;;;;;;;;;;;;;;337612;29;1683;-80
2022/05/05 03:57:36;;;;;;;;;;;;;;;;;;337967;29;1604;-80
2022/05/05 03:57:48;;;;;;;;;;;;;;;;;;337781;29;1179;-79
2022/05/05 03:57:59;;;;;;;;;;;;;;;;;;337136;29;1821;-80
2022/05/05 03:58:09;;;;;;;;;;;;;;;;;;337740;29;1938;-79
2022/05/05 03:58:19;;;;;;;;;;;;;;;;;;338022;29;907;-80
2022/05/05 03:58:29;;;;;;;;;;;;;;;;;;337927;29;1033;-80
2022/05/05 03:58:39;;;;;;;;;;;;;;;;;;338035;29;870;-80
2022/05/05 03:58:50;;;;;;;;;;;;;;;;;;337970;29;942;-80
2022/05/05 03:59:01;;;;;;;;;;;;;;;;;;337839;29;1000;-80
2022/05/05 03:59:11;;;;;;;;;;;;;;;;;;338003;29;938;-80
2022/05/05 03:59:24;;;;;;;;;;;;;;;;;;337967;29;1034;-80
2022/05/05 03:59:34;;;;;;;;;;;;;;;;;;337937;29;1067;-80
2022/05/05 03:59:45;;;;;;;;;;;;;;;;;;337979;29;922;-80
2022/05/05 03:59:55;;;;;;;;;;;;;;;;;;337141;29;1725;-80
2022/05/05 04:00:05;;;;;;;;;;;;;;;;;;337488;29;1788;-79
2022/05/05 04:00:18;;;;;;;;;;;;;;;;;;337042;29;2071;-79
2022/05/05 04:00:28;;;;;;;;;;;;;;;;;;337664;29;1491;-79
2022/05/05 04:00:38;;;;;;;;;;;;;;;;;;337617;29;1788;-80
2022/05/05 04:00:49;;;;;;;;;;;;;;;;;;337841;29;1023;-80
2022/05/05 04:00:59;;;;;;;;;;;;;;;;;;337847;29;1713;-80
2022/05/05 04:01:09;;;;;;;;;;;;;;;;;;336796;29;1830;-80
2022/05/05 04:01:19;;;;;;;;;;;;;;;;;;337690;29;1966;-79
2022/05/05 04:01:30;;;;;;;;;;;;;;;;;;337415;29;1649;-79
2022/05/05 04:01:40;;;;;;;;;;;;;;;;;;337806;29;1970;-83
2022/05/05 04:01:50;;;;;;;;;;;;;;;;;;337990;29;870;-83
2022/05/05 04:02:00;;;;;;;;;;;;;;;;;;337843;29;1955;-83
2022/05/05 04:02:11;;;;;;;;;;;;;;;;;;337921;29;1966;-83
2022/05/05 04:02:21;;;;;;;;;;;;;;;;;;338008;29;1009;-83
2022/05/05 04:02:31;;;;;;;;;;;;;;;;;;338024;29;942;-76
2022/05/05 04:02:41;;;;;;;;;;;;;;;;;;337983;29;922;-78
2022/05/05 04:03:32;;;;;;;;;;;;;;;;;;337925;29;1033;-78
2022/05/05 04:03:43;;;;;;;;;;;;;;;;;;337356;29;1803;-78
2022/05/05 04:03:53;;;;;;;;;;;;;;;;;;337786;29;2084;-78
2022/05/05 04:04:03;;;;;;;;;;;;;;;;;;337688;29;1599;-78
2022/05/05 04:04:14;;;;;;;;;;;;;;;;;;337986;29;993;-78
2022/05/05 04:04:25;;;;;;;;;;;;;;;;;;337882;29;1797;-78
2022/05/05 04:04:35;;;;;;;;;;;;;;;;;;337814;29;1564;-78
2022/05/05 04:04:45;;;;;;;;;;;;;;;;;;337515;29;1551;-78
2022/05/05 04:04:55;;;;;;;;;;;;;;;;;;337623;29;1764;-78
2022/05/05 04:05:06;;;;;;;;;;;;;;;;;;336723;29;989;-78
2022/05/05 04:05:16;;;;;;;;;;;;;;;;;;336776;29;878;-78
2022/05/05 04:05:27;;;;;;;;;;;;;;;;;;336699;29;1747;-78
2022/05/05 04:05:38;;;;;;;;;;;;;;;;;;337129;29;1717;-78
2022/05/05 04:05:48;;;;;;;;;;;;;;;;;;337900;29;2207;-78
2022/05/05 04:05:59;;;;;;;;;;;;;;;;;;337956;29;978;-78
2022/05/05 04:06:10;;;;;;;;;;;;;;;;;;337248;29;1741;-78
2022/05/05 04:06:20;;;;;;;;;;;;;;;;;;337599;29;1970;-78
2022/05/05 04:06:30;;;;;;;;;;;;;;;;;;337461;29;1784;-78
2022/05/05 04:06:41;;;;;;;;;;;;;;;;;;337658;29;1741;-77
2022/05/05 04:06:51;;;;;;;;;;;;;;;;;;337897;29;2191;-78
2022/05/05 04:07:02;;;;;;;;;;;;;;;;;;337945;29;865;-78
2022/05/05 04:07:12;;;;;;;;;;;;;;;;;;337873;29;2227;-78
2022/05/05 04:07:22;;;;;;;;;;;;;;;;;;338004;29;982;-78
2022/05/05 04:07:32;;;;;;;;;;;;;;;;;;337659;29;1444;-77
2022/05/05 04:07:42;;;;;;;;;;;;;;;;;;337767;29;1179;-78
2022/05/05 04:07:52;;;;;;;;;;;;;;;;;;338010;29;816;-78
2022/05/05 04:08:04;;;;;;;;;;;;;;;;;;337963;29;922;-78
2022/05/05 04:08:14;;;;;;;;;;;;;;;;;;337615;29;1093;-78
2022/05/05 04:08:25;;;;;;;;;;;;;;;;;;337970;29;1025;-78
2022/05/05 04:08:36;;;;;;;;;;;;;;;;;;337860;29;2185;-78
2022/05/05 04:08:47;;;;;;;;;;;;;;;;;;338005;29;926;-78
2022/05/05 04:08:57;;;;;;;;;;;;;;;;;;337949;29;922;-78
2022/05/05 04:09:07;;;;;;;;;;;;;;;;;;337807;29;1025;-78
2022/05/05 04:09:17;;;;;;;;;;;;;;;;;;338030;29;998;-78
2022/05/05 04:09:27;;;;;;;;;;;;;;;;;;337970;29;922;-78
2022/05/05 04:09:38;;;;;;;;;;;;;;;;;;337975;29;981;-78
2022/05/05 04:09:48;;;;;;;;;;;;;;;;;;337997;29;998;-78
2022/05/05 04:09:58;;;;;;;;;;;;;;;;;;338001;29;922;-78
2022/05/05 04:10:08;;;;;;;;;;;;;;;;;;337834;29;992;-78
2022/05/05 04:10:19;;;;;;;;;;;;;;;;;;337943;29;914;-78
2022/05/05 04:10:29;;;;;;;;;;;;;;;;;;338022;29;1016;-78
2022/05/05 04:10:40;;;;;;;;;;;;;;;;;;337957;29;938;-78
2022/05/05 04:10:50;;;;;;;;;;;;;;;;;;337952;29;1092;-78
2022/05/05 04:11:00;;;;;;;;;;;;;;;;;;337982;29;953;-78
2022/05/05 04:11:11;;;;;;;;;;;;;;;;;;337871;29;1130;-78
2022/05/05 04:11:21;;;;;;;;;;;;;;;;;;337966;29;982;-78
2022/05/05 04:11:31;;;;;;;;;;;;;;;;;;338023;29;934;-78
2022/05/05 04:11:41;;;;;;;;;;;;;;;;;;338001;29;922;-78
2022/05/05 04:11:51;;;;;;;;;;;;;;;;;;337972;29;859;-78
2022/05/05 04:12:02;;;;;;;;;;;;;;;;;;337909;29;1107;-78
2022/05/05 04:12:12;;;;;;;;;;;;;;;;;;337992;29;950;-78
2022/05/05 04:12:22;;;;;;;;;;;;;;;;;;337923;29;926;-78